Time;durP1;ratioP1;P1;durP2;ratioP2;P2;SDS_P1;SDS_P2;PMS_P1;PMS_P2;Temp;Humidity;BMP_temperature;BMP_pressure;BME280_temperature;BME280_humidity;BME280_pressure;Samples;Min_cycle;Max_cycle;Signal;HPM_P1;HPM_P2
2021/01/11 00:02:20;;;;;;;52.37;42.60;;;;;;;;;;5032316;28;20826;-68
2021/01/11 00:04:47;;;;;;;55.10;46.10;;;;;;;;;;5031454;28;20457;-68
2021/01/11 00:07:14;;;;;;;53.53;43.00;;;;;;;;;;5032298;28;20509;-68
2021/01/11 00:09:41;;;;;;;51.60;40.53;;;;;;;;;;5032046;28;20445;-68
2021/01/11 00:12:07;;;;;;;60.47;46.07;;;;;;;;;;5021062;28;20489;-67
2021/01/11 00:14:34;;;;;;;59.07;47.93;;;;;;;;;;5027811;28;20825;-68
2021/01/11 00:17:01;;;;;;;57.80;45.47;;;;;;;;;;5032191;28;20448;-68
2021/01/11 00:19:27;;;;;;;59.10;44.87;;;;;;;;;;5031757;28;20809;-67
2021/01/11 00:21:55;;;;;;;56.47;42.67;;;;;;;;;;5031743;28;20449;-68
2021/01/11 00:24:21;;;;;;;58.40;46.50;;;;;;;;;;5031989;28;20457;-68
2021/01/11 00:26:51;;;;;;;54.83;43.70;;;;;;;;;;5031430;28;20445;-69
2021/01/11 00:29:19;;;;;;;56.53;44.50;;;;;;;;;;5032182;28;20448;-68
2021/01/11 00:31:45;;;;;;;53.17;44.07;;;;;;;;;;5043971;28;20477;-68
2021/01/11 00:34:12;;;;;;;53.40;44.50;;;;;;;;;;5049767;28;20452;-69
2021/01/11 00:36:38;;;;;;;54.43;42.80;;;;;;;;;;5050551;28;20445;-69
2021/01/11 00:39:06;;;;;;;57.83;43.60;;;;;;;;;;5050893;28;20491;-69
2021/01/11 00:41:33;;;;;;;61.30;45.60;;;;;;;;;;5050636;28;20441;-69
2021/01/11 00:44:00;;;;;;;53.40;42.27;;;;;;;;;;5048811;28;20445;-68
2021/01/11 00:46:27;;;;;;;55.67;44.13;;;;;;;;;;5049777;28;20658;-68
2021/01/11 00:48:54;;;;;;;62.57;46.53;;;;;;;;;;5048464;28;20479;-68
2021/01/11 00:51:20;;;;;;;55.77;44.60;;;;;;;;;;5050029;28;20486;-69
2021/01/11 00:53:47;;;;;;;61.27;46.10;;;;;;;;;;5048928;28;20454;-68
2021/01/11 00:56:15;;;;;;;64.00;45.00;;;;;;;;;;5042379;28;20453;-69
2021/01/11 00:58:42;;;;;;;59.30;43.77;;;;;;;;;;5041271;28;20510;-69
2021/01/11 01:01:09;;;;;;;60.40;45.50;;;;;;;;;;5039306;28;20527;-69
2021/01/11 01:03:36;;;;;;;63.40;47.07;;;;;;;;;;5036540;28;20460;-68
2021/01/11 01:06:02;;;;;;;57.50;42.53;;;;;;;;;;5031452;28;20449;-68
2021/01/11 01:08:29;;;;;;;66.27;45.30;;;;;;;;;;5034741;28;20483;-68
2021/01/11 01:10:56;;;;;;;54.60;43.17;;;;;;;;;;5035662;28;20634;-69
2021/01/11 01:13:23;;;;;;;55.40;42.67;;;;;;;;;;5034931;28;20966;-68
2021/01/11 01:15:50;;;;;;;56.07;43.30;;;;;;;;;;5035120;28;20449;-68
2021/01/11 01:18:16;;;;;;;61.87;43.90;;;;;;;;;;5034900;28;20468;-68
2021/01/11 01:20:43;;;;;;;65.60;47.03;;;;;;;;;;5035021;28;20936;-68
2021/01/11 01:23:09;;;;;;;66.63;46.60;;;;;;;;;;5035027;28;20456;-67
2021/01/11 01:25:36;;;;;;;57.63;44.10;;;;;;;;;;5034674;28;20461;-68
2021/01/11 01:28:03;;;;;;;53.93;40.33;;;;;;;;;;5034728;28;20464;-68
2021/01/11 01:30:30;;;;;;;64.90;47.60;;;;;;;;;;5034812;28;20783;-68
2021/01/11 01:32:59;;;;;;;55.53;42.93;;;;;;;;;;5034253;28;20860;-68
2021/01/11 01:35:26;;;;;;;61.07;43.67;;;;;;;;;;5034492;28;20539;-69
2021/01/11 01:37:52;;;;;;;60.97;46.30;;;;;;;;;;5034408;28;20495;-68
2021/01/11 01:40:19;;;;;;;56.97;41.00;;;;;;;;;;5035226;28;20444;-68
2021/01/11 01:42:46;;;;;;;62.40;44.90;;;;;;;;;;5034256;28;20445;-68
2021/01/11 01:45:13;;;;;;;64.13;45.30;;;;;;;;;;5034639;28;20798;-68
2021/01/11 01:47:40;;;;;;;60.50;47.10;;;;;;;;;;5034126;28;20473;-68
2021/01/11 01:50:08;;;;;;;66.00;46.30;;;;;;;;;;5034471;28;20826;-68
2021/01/11 01:52:35;;;;;;;64.23;44.03;;;;;;;;;;5034480;28;20550;-69
2021/01/11 01:55:02;;;;;;;58.13;43.13;;;;;;;;;;5034706;28;20448;-68
2021/01/11 01:57:29;;;;;;;61.77;43.67;;;;;;;;;;5034598;28;20472;-68
2021/01/11 01:59:56;;;;;;;60.57;44.50;;;;;;;;;;5034417;28;20819;-67
2021/01/11 02:02:22;;;;;;;68.07;45.37;;;;;;;;;;5034138;28;20823;-69
2021/01/11 02:04:50;;;;;;;47.90;35.47;;;;;;;;;;5035509;28;20445;-68
2021/01/11 02:07:20;;;;;;;61.43;42.97;;;;;;;;;;5035262;28;20491;-68
2021/01/11 02:09:51;;;;;;;59.37;43.10;;;;;;;;;;5035068;28;20902;-68
2021/01/11 02:12:18;;;;;;;55.20;41.50;;;;;;;;;;5034870;28;20991;-70
2021/01/11 02:14:52;;;;;;;57.50;41.43;;;;;;;;;;5033767;28;20459;-68
2021/01/11 02:17:21;;;;;;;58.07;42.03;;;;;;;;;;5033636;28;20468;-69
2021/01/11 02:20:05;;;;;;;60.00;42.00;;;;;;;;;;5045969;28;20452;-69
2021/01/11 02:22:39;;;;;;;59.40;43.83;;;;;;;;;;5054019;28;20466;-69
2021/01/11 02:25:26;;;;;;;58.03;40.40;;;;;;;;;;5043154;28;20452;-69
2021/01/11 02:27:54;;;;;;;62.37;43.30;;;;;;;;;;5028843;28;20481;-68
2021/01/11 02:30:30;;;;;;;62.50;41.47;;;;;;;;;;5033394;28;20832;-68
2021/01/11 02:33:00;;;;;;;63.67;44.00;;;;;;;;;;5014045;28;20485;-67
2021/01/11 02:35:26;;;;;;;72.73;47.37;;;;;;;;;;5031650;28;20453;-68
2021/01/11 02:37:53;;;;;;;67.33;44.70;;;;;;;;;;5033345;28;20542;-68
2021/01/11 02:40:20;;;;;;;68.23;46.97;;;;;;;;;;5033815;28;20448;-68
2021/01/11 02:42:47;;;;;;;66.10;45.67;;;;;;;;;;5033610;28;20448;-68
2021/01/11 02:45:13;;;;;;;67.17;43.47;;;;;;;;;;5033362;28;20868;-68
2021/01/11 02:47:52;;;;;;;71.93;45.87;;;;;;;;;;5033954;28;20464;-69
2021/01/11 02:50:21;;;;;;;70.63;45.83;;;;;;;;;;5032924;28;20449;-69
2021/01/11 02:52:54;;;;;;;70.67;45.10;;;;;;;;;;5033232;28;20551;-68
2021/01/11 02:55:24;;;;;;;69.83;47.97;;;;;;;;;;5033466;28;20451;-68
2021/01/11 02:57:56;;;;;;;70.60;49.10;;;;;;;;;;5033225;28;20484;-68
2021/01/11 03:00:23;;;;;;;68.00;45.47;;;;;;;;;;5033046;28;20444;-69
2021/01/11 03:02:52;;;;;;;72.13;49.67;;;;;;;;;;5032850;28;20460;-68
2021/01/11 03:05:19;;;;;;;75.17;50.00;;;;;;;;;;5032911;28;20848;-68
2021/01/11 03:07:54;;;;;;;67.53;47.70;;;;;;;;;;5032515;28;20468;-68
2021/01/11 03:10:21;;;;;;;65.63;49.70;;;;;;;;;;5033284;28;20452;-68
2021/01/11 03:12:48;;;;;;;75.03;55.27;;;;;;;;;;5032404;28;20484;-67
2021/01/11 03:15:15;;;;;;;79.63;54.43;;;;;;;;;;5032557;28;20503;-68
2021/01/11 03:17:42;;;;;;;80.27;53.43;;;;;;;;;;5033170;28;20514;-68
2021/01/11 03:20:10;;;;;;;87.23;53.57;;;;;;;;;;5032844;28;20448;-67
2021/01/11 03:22:37;;;;;;;85.40;56.73;;;;;;;;;;5033144;28;20463;-68
2021/01/11 03:25:04;;;;;;;91.27;56.33;;;;;;;;;;5032342;28;20453;-68
2021/01/11 03:27:30;;;;;;;91.60;57.70;;;;;;;;;;5032529;28;21058;-68
2021/01/11 03:29:57;;;;;;;97.90;58.03;;;;;;;;;;5031844;28;20487;-68
2021/01/11 03:32:24;;;;;;;101.73;61.00;;;;;;;;;;5032495;28;20485;-68
2021/01/11 03:34:50;;;;;;;92.30;58.00;;;;;;;;;;5032809;28;20459;-67
2021/01/11 03:37:18;;;;;;;105.20;61.00;;;;;;;;;;5032700;28;20824;-68
2021/01/11 03:39:45;;;;;;;103.53;61.53;;;;;;;;;;5032058;28;20449;-68
2021/01/11 03:42:11;;;;;;;112.43;67.10;;;;;;;;;;5032519;28;20453;-69
2021/01/11 03:44:38;;;;;;;103.17;62.20;;;;;;;;;;5032467;28;20457;-69
2021/01/11 03:47:04;;;;;;;112.17;65.90;;;;;;;;;;5032441;28;20502;-68
2021/01/11 03:49:31;;;;;;;100.00;60.70;;;;;;;;;;5032154;28;20448;-68
2021/01/11 03:52:01;;;;;;;103.27;60.13;;;;;;;;;;5032128;28;20488;-68
2021/01/11 03:54:28;;;;;;;94.07;58.33;;;;;;;;;;5032278;28;20465;-68
2021/01/11 03:56:55;;;;;;;103.63;65.77;;;;;;;;;;5031538;28;20478;-68
2021/01/11 03:59:21;;;;;;;97.50;56.83;;;;;;;;;;5032112;28;20461;-68
2021/01/11 04:01:48;;;;;;;100.20;62.07;;;;;;;;;;5032347;28;20457;-68
2021/01/11 04:04:15;;;;;;;98.00;66.63;;;;;;;;;;5032328;28;20476;-68
2021/01/11 04:06:41;;;;;;;104.43;75.90;;;;;;;;;;5028362;28;20445;-69
2021/01/11 04:09:08;;;;;;;111.37;72.27;;;;;;;;;;5031291;28;20476;-69
2021/01/11 04:11:35;;;;;;;105.90;73.57;;;;;;;;;;5031673;28;20987;-69
2021/01/11 04:14:02;;;;;;;97.10;69.87;;;;;;;;;;5032041;28;20483;-69
2021/01/11 04:16:29;;;;;;;101.97;70.40;;;;;;;;;;5032431;28;20449;-69
2021/01/11 04:18:55;;;;;;;85.93;70.80;;;;;;;;;;5031061;28;21016;-68
2021/01/11 04:21:22;;;;;;;83.00;64.27;;;;;;;;;;5032066;28;20506;-69
2021/01/11 04:23:48;;;;;;;80.70;59.87;;;;;;;;;;5038065;28;20453;-69
2021/01/11 04:26:15;;;;;;;85.20;63.17;;;;;;;;;;5039341;28;20451;-69
2021/01/11 04:28:42;;;;;;;84.67;57.73;;;;;;;;;;5035310;28;21041;-68
2021/01/11 04:31:09;;;;;;;83.67;64.70;;;;;;;;;;5032383;28;20452;-69
2021/01/11 04:33:36;;;;;;;82.30;61.00;;;;;;;;;;5031482;28;20485;-69
2021/01/11 04:36:02;;;;;;;82.87;61.43;;;;;;;;;;5030991;28;20480;-69
2021/01/11 04:38:29;;;;;;;84.70;62.87;;;;;;;;;;5031104;28;20472;-69
2021/01/11 04:41:00;;;;;;;88.30;59.17;;;;;;;;;;5031713;28;20455;-69
2021/01/11 04:43:28;;;;;;;81.30;61.50;;;;;;;;;;5030952;28;20449;-69
2021/01/11 04:45:57;;;;;;;76.80;59.73;;;;;;;;;;5031724;28;20444;-69
2021/01/11 04:48:24;;;;;;;77.83;57.47;;;;;;;;;;5031032;28;20530;-68
2021/01/11 04:50:50;;;;;;;77.30;58.67;;;;;;;;;;5031358;28;20459;-68
2021/01/11 04:53:18;;;;;;;75.13;59.07;;;;;;;;;;5031092;28;20480;-69
2021/01/11 04:55:46;;;;;;;79.17;57.87;;;;;;;;;;5031329;28;20453;-68
2021/01/11 04:58:13;;;;;;;78.10;62.43;;;;;;;;;;5030684;28;20999;-68
2021/01/11 05:00:41;;;;;;;79.67;59.43;;;;;;;;;;5031112;28;20449;-69
2021/01/11 05:03:09;;;;;;;79.00;58.27;;;;;;;;;;5031821;28;20783;-68
2021/01/11 05:05:36;;;;;;;72.73;55.10;;;;;;;;;;5031210;28;20860;-69
2021/01/11 05:08:03;;;;;;;78.83;60.00;;;;;;;;;;5030718;28;20468;-69
2021/01/11 05:10:31;;;;;;;77.13;57.70;;;;;;;;;;5031673;28;20451;-69
2021/01/11 05:12:58;;;;;;;78.20;61.73;;;;;;;;;;5031046;28;20511;-69
2021/01/11 05:15:26;;;;;;;72.63;58.77;;;;;;;;;;5030968;28;20449;-69
2021/01/11 05:17:53;;;;;;;73.33;61.73;;;;;;;;;;5030978;28;20538;-69
2021/01/11 05:20:24;;;;;;;77.60;57.20;;;;;;;;;;5031121;28;20460;-69
2021/01/11 05:22:53;;;;;;;83.17;60.57;;;;;;;;;;5030953;28;20475;-69
2021/01/11 05:25:20;;;;;;;81.43;61.40;;;;;;;;;;5031717;28;20453;-69
2021/01/11 05:27:48;;;;;;;81.73;59.10;;;;;;;;;;5030784;28;20469;-68
2021/01/11 05:30:29;;;;;;;78.20;58.03;;;;;;;;;;5031467;28;20449;-69
2021/01/11 05:32:56;;;;;;;78.80;59.03;;;;;;;;;;5030820;28;20473;-68
2021/01/11 05:35:24;;;;;;;76.57;63.40;;;;;;;;;;5031602;28;20449;-69
2021/01/11 05:37:51;;;;;;;81.30;61.07;;;;;;;;;;5031140;28;20473;-68
2021/01/11 05:40:19;;;;;;;78.20;59.47;;;;;;;;;;5031740;28;20453;-69
2021/01/11 05:42:49;;;;;;;76.20;60.47;;;;;;;;;;5031304;28;20440;-68
2021/01/11 05:45:17;;;;;;;73.57;57.17;;;;;;;;;;5032111;28;20447;-68
2021/01/11 05:48:10;;;;;;;70.70;55.87;;;;;;;;;;5031273;28;20522;-68
2021/01/11 05:50:39;;;;;;;81.77;59.60;;;;;;;;;;5033116;28;21014;-69
2021/01/11 05:53:14;;;;;;;80.93;61.10;;;;;;;;;;5050429;28;20483;-68
2021/01/11 05:55:41;;;;;;;81.23;60.50;;;;;;;;;;5054037;28;20436;-69
2021/01/11 05:58:07;;;;;;;75.00;59.03;;;;;;;;;;5052211;28;20483;-69
2021/01/11 06:00:35;;;;;;;70.30;55.67;;;;;;;;;;5051750;28;20843;-68
2021/01/11 06:03:02;;;;;;;70.97;56.47;;;;;;;;;;5053401;28;20759;-69
2021/01/11 06:05:30;;;;;;;69.50;55.90;;;;;;;;;;5052385;28;20452;-68
2021/01/11 06:07:58;;;;;;;71.20;55.20;;;;;;;;;;5052311;28;20464;-68
2021/01/11 06:10:25;;;;;;;66.43;55.40;;;;;;;;;;5052134;28;20520;-69
2021/01/11 06:12:52;;;;;;;67.33;50.73;;;;;;;;;;5049739;28;20538;-69
2021/01/11 06:15:19;;;;;;;65.57;52.10;;;;;;;;;;5040029;28;20449;-69
2021/01/11 06:17:47;;;;;;;58.43;49.03;;;;;;;;;;5034124;28;20993;-70
2021/01/11 06:20:14;;;;;;;56.60;50.50;;;;;;;;;;5033501;28;20454;-69
2021/01/11 06:23:05;;;;;;;54.47;46.80;;;;;;;;;;5033693;28;20833;-69
2021/01/11 06:25:38;;;;;;;55.43;45.23;;;;;;;;;;5033679;28;20448;-70
2021/01/11 06:28:05;;;;;;;50.87;44.40;;;;;;;;;;5032933;28;20523;-68
2021/01/11 06:30:39;;;;;;;50.63;42.73;;;;;;;;;;5033281;28;20448;-69
2021/01/11 06:33:06;;;;;;;46.67;40.40;;;;;;;;;;5033828;28;20488;-69
2021/01/11 06:35:33;;;;;;;48.57;40.27;;;;;;;;;;5033505;28;20449;-68
2021/01/11 06:38:26;;;;;;;42.23;36.93;;;;;;;;;;5038037;28;20484;-69
2021/01/11 06:40:54;;;;;;;44.93;40.20;;;;;;;;;;4978981;28;20454;-68
2021/01/11 06:43:22;;;;;;;40.07;35.50;;;;;;;;;;5032618;28;20499;-68
2021/01/11 06:45:49;;;;;;;41.50;36.53;;;;;;;;;;5031862;28;20451;-68
2021/01/11 06:48:17;;;;;;;39.83;35.30;;;;;;;;;;5032778;28;21097;-68
2021/01/11 06:50:45;;;;;;;41.87;37.53;;;;;;;;;;5033261;28;20452;-69
2021/01/11 06:53:12;;;;;;;42.60;34.63;;;;;;;;;;5033765;28;20481;-69
2021/01/11 06:55:38;;;;;;;34.63;30.63;;;;;;;;;;5031828;28;20853;-67
2021/01/11 06:58:06;;;;;;;37.90;32.47;;;;;;;;;;5032851;28;20480;-69
2021/01/11 07:00:34;;;;;;;36.53;32.77;;;;;;;;;;5022977;28;20472;-68
2021/01/11 07:03:01;;;;;;;34.73;31.00;;;;;;;;;;5032164;28;20440;-68
2021/01/11 07:05:37;;;;;;;34.67;31.17;;;;;;;;;;5030736;28;20655;-67
2021/01/11 07:08:04;;;;;;;34.67;30.83;;;;;;;;;;5031166;28;21022;-67
2021/01/11 07:10:31;;;;;;;13.33;11.97;;;;;;;;;;5032570;28;20677;-69
2021/01/11 07:13:13;;;;;;;14.03;12.40;;;;;;;;;;5032529;28;20481;-73
2021/01/11 07:15:40;;;;;;;16.73;14.93;;;;;;;;;;5032428;28;20453;-75
2021/01/11 07:18:07;;;;;;;12.20;10.97;;;;;;;;;;5033198;28;20481;-69
2021/01/11 07:20:40;;;;;;;13.50;12.20;;;;;;;;;;5033505;28;20440;-74
2021/01/11 07:23:07;;;;;;;8.77;7.97;;;;;;;;;;5032294;28;20452;-67
2021/01/11 07:25:34;;;;;;;8.07;7.27;;;;;;;;;;5032508;28;20456;-67
2021/01/11 07:28:01;;;;;;;9.93;9.10;;;;;;;;;;5031203;28;20851;-68
2021/01/11 07:30:30;;;;;;;7.30;6.60;;;;;;;;;;5032693;28;20471;-70
2021/01/11 07:32:58;;;;;;;8.83;8.20;;;;;;;;;;5032849;28;20503;-67
2021/01/11 07:35:24;;;;;;;9.90;9.10;;;;;;;;;;5031150;28;20823;-68
2021/01/11 07:37:51;;;;;;;7.80;7.20;;;;;;;;;;5032320;28;20464;-68
2021/01/11 07:40:18;;;;;;;8.30;7.60;;;;;;;;;;5032333;28;20955;-67
2021/01/11 07:42:44;;;;;;;20.47;18.97;;;;;;;;;;5033065;28;20963;-72
2021/01/11 07:45:12;;;;;;;26.63;24.33;;;;;;;;;;5032593;28;20822;-68
2021/01/11 07:47:39;;;;;;;28.03;25.43;;;;;;;;;;5035458;28;20464;-70
2021/01/11 07:50:08;;;;;;;30.30;27.40;;;;;;;;;;5041830;28;20480;-68
2021/01/11 07:52:34;;;;;;;30.00;27.17;;;;;;;;;;5039426;28;21030;-68
2021/01/11 07:55:02;;;;;;;32.40;29.23;;;;;;;;;;5033018;28;20452;-68
2021/01/11 07:57:29;;;;;;;30.70;27.70;;;;;;;;;;5032415;28;20477;-67
2021/01/11 08:00:04;;;;;;;32.27;28.93;;;;;;;;;;5031128;28;20456;-68
2021/01/11 08:02:32;;;;;;;36.53;32.70;;;;;;;;;;5028256;28;20917;-68
2021/01/11 08:04:59;;;;;;;32.50;29.40;;;;;;;;;;5031799;28;20457;-67
2021/01/11 08:07:29;;;;;;;34.97;31.53;;;;;;;;;;5032129;28;20469;-65
2021/01/11 08:09:57;;;;;;;32.80;29.57;;;;;;;;;;5031999;28;20908;-70
2021/01/11 08:12:23;;;;;;;35.13;31.57;;;;;;;;;;5032507;28;20480;-70
2021/01/11 08:14:51;;;;;;;35.33;32.03;;;;;;;;;;5025655;28;20456;-70
2021/01/11 08:17:18;;;;;;;33.30;29.90;;;;;;;;;;5021958;28;20875;-70
2021/01/11 08:19:49;;;;;;;32.57;29.37;;;;;;;;;;5030918;28;20453;-71
2021/01/11 08:22:18;;;;;;;33.67;30.27;;;;;;;;;;5032239;28;20437;-71
2021/01/11 08:24:46;;;;;;;32.50;29.20;;;;;;;;;;5031415;28;20900;-70
2021/01/11 08:27:14;;;;;;;33.97;30.50;;;;;;;;;;5032038;28;20538;-71
2021/01/11 08:29:42;;;;;;;33.80;30.23;;;;;;;;;;5031359;28;20457;-75
2021/01/11 08:32:10;;;;;;;36.00;32.57;;;;;;;;;;5033862;28;20491;-70
2021/01/11 08:34:37;;;;;;;13.13;10.37;;;;;;;;;;5031765;28;20453;-73
2021/01/11 08:37:18;;;;;;;18.00;16.10;;;;;;;;;;5035269;28;20448;-73
2021/01/11 08:39:55;;;;;;;8.87;7.97;;;;;;;;;;5033704;28;20445;-79
2021/01/11 08:42:22;;;;;;;13.27;12.03;;;;;;;;;;5033008;28;20939;-71
2021/01/11 08:44:50;;;;;;;8.63;7.83;;;;;;;;;;5031692;28;20506;-70
2021/01/11 08:47:25;;;;;;;8.30;7.60;;;;;;;;;;5032042;28;20492;-70
2021/01/11 08:49:58;;;;;;;11.07;10.20;;;;;;;;;;5026709;28;20498;-69
2021/01/11 08:52:29;;;;;;;8.13;7.43;;;;;;;;;;5031328;28;20488;-69
2021/01/11 08:54:56;;;;;;;10.43;9.63;;;;;;;;;;5031108;28;20515;-69
2021/01/11 08:57:27;;;;;;;8.27;7.60;;;;;;;;;;5029906;28;20493;-70
2021/01/11 08:59:54;;;;;;;7.00;6.50;;;;;;;;;;5031332;28;20517;-70
2021/01/11 09:02:28;;;;;;;10.33;9.57;;;;;;;;;;5031366;28;20444;-70
2021/01/11 09:04:55;;;;;;;6.10;5.60;;;;;;;;;;5029868;28;20863;-69
2021/01/11 09:07:28;;;;;;;8.20;7.50;;;;;;;;;;5030532;28;20473;-70
2021/01/11 09:09:55;;;;;;;6.17;5.67;;;;;;;;;;5011814;28;20445;-70
2021/01/11 09:12:29;;;;;;;6.50;5.90;;;;;;;;;;5022233;28;20487;-70
2021/01/11 09:14:56;;;;;;;6.60;6.00;;;;;;;;;;5032967;28;20448;-69
2021/01/11 09:17:27;;;;;;;14.90;13.57;;;;;;;;;;5039880;28;21065;-70
2021/01/11 09:19:53;;;;;;;10.30;9.50;;;;;;;;;;5031056;28;20511;-70
2021/01/11 09:22:29;;;;;;;10.93;9.93;;;;;;;;;;5031210;28;20476;-69
2021/01/11 09:24:56;;;;;;;9.20;8.40;;;;;;;;;;5031118;28;20928;-70
2021/01/11 09:27:23;;;;;;;34.13;31.13;;;;;;;;;;5031186;28;20817;-71
2021/01/11 09:29:51;;;;;;;35.10;31.37;;;;;;;;;;5034410;28;20903;-70
2021/01/11 09:32:18;;;;;;;44.20;39.70;;;;;;;;;;5034662;28;20486;-71
2021/01/11 09:34:45;;;;;;;46.60;41.53;;;;;;;;;;5035176;28;20889;-73
2021/01/11 09:37:12;;;;;;;48.10;42.83;;;;;;;;;;5034734;28;20864;-72
2021/01/11 09:39:38;;;;;;;48.77;41.60;;;;;;;;;;5033985;28;20499;-72
2021/01/11 09:42:05;;;;;;;52.50;44.97;;;;;;;;;;5034012;28;20836;-72
2021/01/11 09:44:32;;;;;;;46.80;41.70;;;;;;;;;;5033918;28;20449;-72
2021/01/11 09:47:00;;;;;;;49.63;42.90;;;;;;;;;;5035072;28;20456;-72
2021/01/11 09:49:27;;;;;;;51.63;45.97;;;;;;;;;;5031001;28;20855;-72
2021/01/11 09:51:54;;;;;;;52.07;46.47;;;;;;;;;;5032649;28;20532;-72
2021/01/11 09:54:21;;;;;;;56.10;45.87;;;;;;;;;;5034752;28;20455;-73
2021/01/11 09:56:48;;;;;;;56.80;49.33;;;;;;;;;;5034460;28;20453;-73
2021/01/11 09:59:15;;;;;;;57.20;48.13;;;;;;;;;;5036762;28;20514;-72
2021/01/11 10:01:43;;;;;;;64.57;46.23;;;;;;;;;;5031340;28;20526;-72
2021/01/11 10:04:12;;;;;;;56.83;44.43;;;;;;;;;;5027077;28;20960;-72
2021/01/11 10:06:42;;;;;;;60.10;44.50;;;;;;;;;;5034144;28;20457;-71
2021/01/11 10:09:10;;;;;;;58.87;43.80;;;;;;;;;;5033106;28;20476;-71
2021/01/11 10:11:37;;;;;;;59.23;45.67;;;;;;;;;;5030950;28;20444;-72
2021/01/11 10:14:03;;;;;;;56.20;45.67;;;;;;;;;;5024656;28;20859;-73
2021/01/11 10:16:30;;;;;;;52.13;44.73;;;;;;;;;;5033260;28;20448;-72
2021/01/11 10:18:57;;;;;;;58.03;42.63;;;;;;;;;;5032473;28;20472;-72
2021/01/11 10:21:25;;;;;;;45.27;37.70;;;;;;;;;;5032798;28;20540;-72
2021/01/11 10:23:51;;;;;;;51.60;41.83;;;;;;;;;;5034112;28;20447;-73
2021/01/11 10:26:19;;;;;;;48.53;40.50;;;;;;;;;;5033484;28;20449;-73
2021/01/11 10:28:46;;;;;;;54.23;39.53;;;;;;;;;;5034014;28;20538;-72
2021/01/11 10:31:13;;;;;;;50.53;38.93;;;;;;;;;;5033397;28;20846;-72
2021/01/11 10:33:40;;;;;;;50.67;41.57;;;;;;;;;;5033602;28;20488;-72
2021/01/11 10:36:06;;;;;;;46.63;40.80;;;;;;;;;;5034399;28;20467;-72
2021/01/11 10:38:35;;;;;;;50.53;41.30;;;;;;;;;;5033620;28;20495;-71
2021/01/11 10:41:01;;;;;;;51.57;42.87;;;;;;;;;;5031730;28;20495;-71
2021/01/11 10:43:30;;;;;;;52.73;39.40;;;;;;;;;;5033034;28;20502;-71
2021/01/11 10:45:57;;;;;;;50.83;41.10;;;;;;;;;;5032914;28;20484;-71
2021/01/11 10:48:23;;;;;;;52.77;41.40;;;;;;;;;;5031682;28;20494;-71
2021/01/11 10:50:50;;;;;;;50.97;38.83;;;;;;;;;;5032720;28;20449;-71
2021/01/11 10:53:17;;;;;;;49.10;39.57;;;;;;;;;;5027278;28;20492;-71
2021/01/11 10:55:45;;;;;;;49.70;38.40;;;;;;;;;;5012809;28;20457;-71
2021/01/11 10:58:12;;;;;;;50.50;39.07;;;;;;;;;;5017496;28;20584;-71
2021/01/11 11:00:38;;;;;;;50.80;38.83;;;;;;;;;;5028924;28;20440;-71
2021/01/11 11:03:06;;;;;;;47.43;37.60;;;;;;;;;;5021567;28;20449;-71
2021/01/11 11:05:32;;;;;;;43.53;36.20;;;;;;;;;;5033599;28;20842;-71
2021/01/11 11:07:59;;;;;;;46.33;35.67;;;;;;;;;;5029388;28;20476;-71
2021/01/11 11:10:26;;;;;;;45.53;35.10;;;;;;;;;;5028906;28;20476;-71
2021/01/11 11:12:53;;;;;;;38.80;32.70;;;;;;;;;;5017732;28;20489;-71
2021/01/11 11:15:20;;;;;;;36.90;31.13;;;;;;;;;;5043101;28;20456;-71
2021/01/11 11:17:47;;;;;;;36.73;31.57;;;;;;;;;;5040238;28;20473;-71
2021/01/11 11:20:14;;;;;;;35.73;31.77;;;;;;;;;;5032678;28;20452;-70
2021/01/11 11:22:40;;;;;;;36.00;29.70;;;;;;;;;;5032875;28;20840;-71
2021/01/11 11:25:08;;;;;;;34.27;30.67;;;;;;;;;;5032687;28;20831;-71
2021/01/11 11:27:35;;;;;;;34.63;30.83;;;;;;;;;;5032764;28;20476;-70
2021/01/11 11:30:03;;;;;;;34.73;30.40;;;;;;;;;;5032126;28;20828;-70
2021/01/11 11:32:30;;;;;;;35.47;31.77;;;;;;;;;;5032391;28;20484;-71
2021/01/11 11:34:57;;;;;;;34.40;29.53;;;;;;;;;;5032554;28;20445;-71
2021/01/11 11:37:24;;;;;;;35.00;30.90;;;;;;;;;;5032419;28;20530;-71
2021/01/11 11:39:50;;;;;;;36.63;33.00;;;;;;;;;;5032230;28;20852;-71
2021/01/11 11:42:17;;;;;;;36.63;32.83;;;;;;;;;;5032444;28;20463;-71
2021/01/11 11:44:44;;;;;;;35.63;30.57;;;;;;;;;;5032053;28;20519;-70
2021/01/11 11:47:11;;;;;;;12.47;10.87;;;;;;;;;;5012860;28;20450;-71
2021/01/11 11:49:38;;;;;;;27.80;23.27;;;;;;;;;;5022441;28;20459;-70
2021/01/11 11:52:05;;;;;;;33.83;27.87;;;;;;;;;;5031554;28;20449;-71
2021/01/11 11:54:31;;;;;;;28.10;22.20;;;;;;;;;;5032482;28;20457;-71
2021/01/11 11:56:58;;;;;;;20.60;16.20;;;;;;;;;;5031899;28;20453;-71
2021/01/11 11:59:25;;;;;;;32.93;28.10;;;;;;;;;;5031937;28;20455;-71
2021/01/11 12:01:51;;;;;;;33.20;26.73;;;;;;;;;;5031939;28;20448;-71
2021/01/11 12:04:19;;;;;;;23.80;20.50;;;;;;;;;;5032078;28;20451;-71
2021/01/11 12:06:46;;;;;;;33.00;27.17;;;;;;;;;;5032202;28;20456;-70
2021/01/11 12:09:13;;;;;;;33.20;30.00;;;;;;;;;;5031860;28;20465;-71
2021/01/11 12:11:43;;;;;;;38.17;34.30;;;;;;;;;;5032313;28;20537;-72
2021/01/11 12:14:10;;;;;;;37.50;33.43;;;;;;;;;;5032372;28;20491;-72
2021/01/11 12:16:37;;;;;;;40.60;34.90;;;;;;;;;;5032315;28;20507;-72
2021/01/11 12:19:03;;;;;;;38.27;34.07;;;;;;;;;;5033254;28;20492;-70
2021/01/11 12:21:31;;;;;;;39.93;35.60;;;;;;;;;;5040643;28;20455;-72
2021/01/11 12:23:58;;;;;;;42.47;38.03;;;;;;;;;;5031712;28;20463;-72
2021/01/11 12:26:25;;;;;;;39.50;35.20;;;;;;;;;;5031619;28;20445;-72
2021/01/11 12:28:52;;;;;;;38.83;32.67;;;;;;;;;;5030532;28;20885;-72
2021/01/11 12:31:26;;;;;;;43.33;38.50;;;;;;;;;;5027047;28;20469;-72
2021/01/11 12:33:53;;;;;;;42.80;38.50;;;;;;;;;;5029638;28;20487;-72
2021/01/11 12:36:22;;;;;;;41.60;37.17;;;;;;;;;;5033370;28;20453;-72
2021/01/11 12:38:49;;;;;;;44.57;40.10;;;;;;;;;;5032893;28;20479;-72
2021/01/11 12:41:17;;;;;;;38.50;34.30;;;;;;;;;;5031981;28;20468;-72
2021/01/11 12:43:43;;;;;;;42.30;35.67;;;;;;;;;;5033303;28;20448;-72
2021/01/11 12:46:11;;;;;;;37.90;33.87;;;;;;;;;;5032079;28;20452;-72
2021/01/11 12:48:38;;;;;;;40.57;36.37;;;;;;;;;;5032652;28;21050;-72
2021/01/11 12:51:05;;;;;;;41.97;37.53;;;;;;;;;;5032130;28;20456;-72
2021/01/11 12:53:32;;;;;;;38.97;34.77;;;;;;;;;;5033137;28;20539;-72
2021/01/11 12:55:59;;;;;;;40.90;36.40;;;;;;;;;;5012959;28;20815;-72
2021/01/11 12:58:26;;;;;;;40.37;36.17;;;;;;;;;;5012599;28;20485;-72
2021/01/11 13:00:52;;;;;;;38.47;34.57;;;;;;;;;;5013608;28;20457;-72
2021/01/11 13:03:19;;;;;;;38.43;34.30;;;;;;;;;;5014510;28;20460;-72
2021/01/11 13:05:47;;;;;;;40.70;36.70;;;;;;;;;;5025880;28;20502;-72
2021/01/11 13:08:14;;;;;;;38.70;34.70;;;;;;;;;;5037132;28;20468;-72
2021/01/11 13:10:40;;;;;;;40.33;36.17;;;;;;;;;;5036135;28;20457;-72
2021/01/11 13:13:08;;;;;;;39.27;35.20;;;;;;;;;;5036279;28;20484;-72
2021/01/11 13:15:35;;;;;;;38.93;34.83;;;;;;;;;;5035966;28;20448;-72
2021/01/11 13:18:01;;;;;;;37.73;33.93;;;;;;;;;;5040551;28;20457;-72
2021/01/11 13:20:28;;;;;;;38.87;34.73;;;;;;;;;;5038974;28;20479;-72
2021/01/11 13:22:54;;;;;;;40.47;36.17;;;;;;;;;;5038923;28;20489;-72
2021/01/11 13:25:27;;;;;;;37.90;33.30;;;;;;;;;;5038446;28;20528;-72
2021/01/11 13:27:53;;;;;;;39.03;34.23;;;;;;;;;;5038851;28;20525;-72
2021/01/11 13:30:22;;;;;;;37.20;33.40;;;;;;;;;;5029357;28;20547;-72
2021/01/11 13:32:48;;;;;;;39.27;35.20;;;;;;;;;;5021694;28;20485;-72
2021/01/11 13:35:15;;;;;;;39.53;35.53;;;;;;;;;;5023138;28;20460;-72
2021/01/11 13:37:41;;;;;;;41.00;37.00;;;;;;;;;;5025453;28;20473;-72
2021/01/11 13:40:09;;;;;;;40.87;36.67;;;;;;;;;;5042358;28;20451;-72
2021/01/11 13:42:35;;;;;;;39.73;35.30;;;;;;;;;;5054038;28;20445;-72
2021/01/11 13:45:02;;;;;;;39.50;35.30;;;;;;;;;;5048883;28;20540;-72
2021/01/11 13:47:30;;;;;;;43.73;33.70;;;;;;;;;;5050634;28;20468;-71
2021/01/11 13:49:56;;;;;;;38.30;34.30;;;;;;;;;;5051319;28;20471;-72
2021/01/11 13:52:23;;;;;;;40.97;36.77;;;;;;;;;;5052197;28;20502;-72
2021/01/11 13:54:50;;;;;;;41.23;36.13;;;;;;;;;;5051697;28;20453;-72
2021/01/11 13:57:16;;;;;;;39.83;35.50;;;;;;;;;;5052565;28;20476;-72
2021/01/11 13:59:43;;;;;;;40.93;37.00;;;;;;;;;;5051184;28;20448;-72
2021/01/11 14:02:09;;;;;;;40.77;35.00;;;;;;;;;;5051729;28;20483;-72
2021/01/11 14:04:37;;;;;;;41.83;37.43;;;;;;;;;;5048998;28;20464;-72
2021/01/11 14:07:04;;;;;;;40.87;36.43;;;;;;;;;;5049007;28;20461;-72
2021/01/11 14:09:30;;;;;;;41.30;34.97;;;;;;;;;;5039911;28;20452;-72
2021/01/11 14:11:59;;;;;;;39.63;35.57;;;;;;;;;;5057464;23;20440;-68
2021/01/11 14:14:27;;;;;;;38.10;34.00;;;;;;;;;;5053082;28;20472;-67
2021/01/11 14:16:55;;;;;;;40.73;36.63;;;;;;;;;;5053752;28;20560;-68
2021/01/11 14:19:21;;;;;;;38.97;35.00;;;;;;;;;;5053583;28;20458;-69
2021/01/11 14:21:49;;;;;;;38.97;34.87;;;;;;;;;;5054077;28;20444;-67
2021/01/11 14:24:16;;;;;;;39.33;35.00;;;;;;;;;;5053700;28;20452;-68